Time;durP1;ratioP1;P1;durP2;ratioP2;P2;SDS_P1;SDS_P2;PMS_P1;PMS_P2;Temp;Humidity;BMP_temperature;BMP_pressure;BME280_temperature;BME280_humidity;BME280_pressure;Samples;Min_cycle;Max_cycle;Signal;HPM_P1;HPM_P2
2022/06/28 00:00:11;;;;;;;3.57;3.37;;;17.70;99.90;;;;;;4992136;28;20187;-68
2022/06/28 00:02:37;;;;;;;2.40;2.30;;;17.70;99.90;;;;;;4991187;28;20653;-68
2022/06/28 00:05:04;;;;;;;3.27;2.90;;;17.70;99.90;;;;;;4991357;28;20434;-68
2022/06/28 00:07:30;;;;;;;3.13;2.90;;;17.70;99.90;;;;;;4993499;28;20855;-68
2022/06/28 00:09:56;;;;;;;2.57;2.37;;;17.70;99.90;;;;;;4989278;28;20448;-67
2022/06/28 00:12:21;;;;;;;3.10;2.90;;;17.70;99.90;;;;;;4992192;28;20263;-68
2022/06/28 00:17:31;;;;;;;3.70;3.40;;;17.80;99.90;;;;;;4987747;28;20600;-68
2022/06/28 00:19:56;;;;;;;2.83;2.63;;;17.80;99.90;;;;;;4990154;28;20509;-68
2022/06/28 00:22:22;;;;;;;2.90;2.60;;;17.90;99.90;;;;;;4991066;28;20599;-68
2022/06/28 00:24:47;;;;;;;2.83;2.57;;;17.80;99.90;;;;;;4991856;28;20213;-68
2022/06/28 00:27:13;;;;;;;7.03;2.20;;;17.80;99.90;;;;;;4998973;28;20571;-68
2022/06/28 00:29:39;;;;;;;2.50;2.30;;;17.80;99.90;;;;;;4988676;28;20242;-68
2022/06/28 00:32:05;;;;;;;7.13;2.30;;;17.80;99.90;;;;;;4992012;28;20187;-68
2022/06/28 00:34:30;;;;;;;2.63;2.10;;;17.90;99.90;;;;;;4990514;28;20213;-68
2022/06/28 00:36:56;;;;;;;3.53;2.20;;;17.80;99.90;;;;;;4997985;28;20454;-68
2022/06/28 00:39:22;;;;;;;6.73;2.80;;;17.90;99.90;;;;;;4996434;28;20187;-68
2022/06/28 00:41:47;;;;;;;2.37;2.10;;;17.80;99.90;;;;;;4990518;28;20180;-68
2022/06/28 00:44:13;;;;;;;3.47;2.50;;;17.80;99.90;;;;;;4997662;28;20235;-68
2022/06/28 00:46:39;;;;;;;1.50;1.40;;;17.80;99.90;;;;;;4993686;28;20222;-67
2022/06/28 00:49:05;;;;;;;3.23;2.33;;;17.80;99.90;;;;;;5001361;28;20438;-67
2022/06/28 00:51:32;;;;;;;2.77;2.57;;;17.80;99.90;;;;;;4995674;28;20439;-67
2022/06/28 00:53:59;;;;;;;2.53;2.33;;;17.70;99.90;;;;;;4996247;28;20203;-70
2022/06/28 00:56:25;;;;;;;2.97;2.70;;;17.60;99.90;;;;;;4996081;28;20503;-66
2022/06/28 00:58:52;;;;;;;2.63;2.43;;;17.50;99.90;;;;;;4994829;28;20426;-71
2022/06/28 01:01:19;;;;;;;2.93;2.07;;;17.50;99.90;;;;;;4996019;28;20435;-67
2022/06/28 01:03:45;;;;;;;2.43;2.13;;;17.40;99.90;;;;;;4996749;28;20473;-67
2022/06/28 01:06:11;;;;;;;3.20;2.60;;;17.30;99.90;;;;;;4995051;28;20902;-67
2022/06/28 01:08:37;;;;;;;2.67;2.47;;;17.20;99.90;;;;;;4993939;28;20434;-68
2022/06/28 01:11:18;;;;;;;2.70;2.50;;;17.20;99.90;;;;;;4996619;28;20182;-69
2022/06/28 01:13:48;;;;;;;3.00;2.77;;;17.10;99.90;;;;;;4996826;28;20434;-69
2022/06/28 01:16:14;;;;;;;2.63;2.43;;;17.10;99.90;;;;;;4995961;28;20482;-69
2022/06/28 01:18:40;;;;;;;3.30;2.40;;;17.10;99.90;;;;;;4993695;28;20544;-67
2022/06/28 01:21:06;;;;;;;3.10;2.60;;;17.00;99.90;;;;;;4996359;28;20190;-67
2022/06/28 01:23:32;;;;;;;3.20;3.00;;;17.00;99.90;;;;;;5002142;28;20177;-68
2022/06/28 01:25:58;;;;;;;3.43;2.77;;;17.00;99.90;;;;;;4997365;28;20183;-70
2022/06/28 01:28:24;;;;;;;3.23;2.47;;;16.90;99.90;;;;;;4995599;28;20196;-68
2022/06/28 01:30:51;;;;;;;5.80;2.83;;;17.00;99.90;;;;;;4996444;28;20472;-68
2022/06/28 01:33:17;;;;;;;2.20;2.10;;;17.00;99.90;;;;;;4995990;28;20434;-68
2022/06/28 01:35:42;;;;;;;2.20;2.10;;;17.00;99.90;;;;;;4997642;28;20466;-68
2022/06/28 01:38:09;;;;;;;3.07;2.87;;;17.10;99.90;;;;;;4999237;28;20465;-67
2022/06/28 01:40:34;;;;;;;4.70;2.77;;;17.10;99.90;;;;;;4997602;28;20238;-67
2022/06/28 01:43:00;;;;;;;2.90;2.70;;;17.10;99.90;;;;;;4998292;28;20443;-66
2022/06/28 01:45:29;;;;;;;2.17;2.07;;;17.00;99.90;;;;;;4995441;28;20191;-67
2022/06/28 01:47:54;;;;;;;2.73;2.53;;;17.00;99.90;;;;;;4997344;28;20836;-67
2022/06/28 01:50:20;;;;;;;2.00;1.90;;;17.10;99.90;;;;;;4996668;28;20442;-67
2022/06/28 01:52:46;;;;;;;4.37;2.30;;;17.10;99.90;;;;;;5004063;28;20201;-69
2022/06/28 01:55:12;;;;;;;3.07;2.87;;;17.00;99.90;;;;;;4995730;28;20262;-66
2022/06/28 01:57:38;;;;;;;3.87;2.40;;;17.10;99.90;;;;;;5001797;28;20203;-67
2022/06/28 02:00:05;;;;;;;2.37;2.27;;;17.10;99.90;;;;;;4995998;28;20187;-70
2022/06/28 02:02:31;;;;;;;2.80;2.50;;;17.10;99.90;;;;;;5003187;28;20455;-68
2022/06/28 02:04:56;;;;;;;3.23;2.13;;;17.10;99.90;;;;;;5000335;28;20518;-70
2022/06/28 02:07:22;;;;;;;2.47;2.27;;;17.00;99.90;;;;;;5005450;28;20214;-68
2022/06/28 02:09:47;;;;;;;2.80;2.60;;;17.00;99.90;;;;;;5003153;28;20219;-67
2022/06/28 02:12:13;;;;;;;3.53;3.23;;;16.90;99.90;;;;;;4996857;28;20756;-70
2022/06/28 02:14:38;;;;;;;2.80;2.60;;;17.00;99.90;;;;;;4998880;28;20207;-67
2022/06/28 02:17:04;;;;;;;3.00;2.70;;;16.90;99.90;;;;;;5007706;28;20333;-66
2022/06/28 02:19:30;;;;;;;2.50;2.30;;;16.90;99.90;;;;;;4998010;28;20564;-68
2022/06/28 02:21:55;;;;;;;4.80;2.27;;;16.80;99.90;;;;;;5000305;28;20261;-67
2022/06/28 02:24:21;;;;;;;6.00;2.97;;;16.80;99.90;;;;;;4997826;28;20219;-67
2022/06/28 02:26:47;;;;;;;2.47;2.37;;;16.70;99.90;;;;;;5000438;28;20199;-67
2022/06/28 02:29:12;;;;;;;5.43;2.47;;;16.60;99.90;;;;;;5005897;28;20180;-68
2022/06/28 02:31:37;;;;;;;3.23;2.93;;;16.60;99.90;;;;;;5001128;28;20179;-67
2022/06/28 02:34:04;;;;;;;3.00;2.80;;;16.50;99.90;;;;;;4990055;28;20207;-69
2022/06/28 02:41:58;;;;;;;5.87;2.63;;;16.40;99.90;;;;;;4995953;28;20434;-67
2022/06/28 02:44:24;;;;;;;2.97;2.77;;;16.40;99.90;;;;;;4999149;28;20446;-68
2022/06/28 02:46:49;;;;;;;2.87;2.70;;;16.40;99.90;;;;;;5008034;28;20253;-67
2022/06/28 02:49:15;;;;;;;2.33;2.10;;;16.40;99.90;;;;;;4994720;28;20218;-70
2022/06/28 02:51:42;;;;;;;3.07;2.70;;;16.30;99.90;;;;;;4999049;28;20600;-67
2022/06/28 02:54:07;;;;;;;2.97;2.77;;;16.20;99.90;;;;;;4996352;28;20291;-67
2022/06/28 02:56:33;;;;;;;3.60;3.30;;;16.20;99.90;;;;;;5005624;28;21013;-68
2022/06/28 02:58:59;;;;;;;7.63;2.97;;;16.10;99.90;;;;;;4997217;28;20183;-69
2022/06/28 03:01:25;;;;;;;4.10;3.07;;;16.10;99.90;;;;;;4998484;28;20474;-68
2022/06/28 03:03:50;;;;;;;3.07;2.40;;;16.10;99.90;;;;;;4999784;28;20198;-70
2022/06/28 03:06:16;;;;;;;4.43;2.80;;;16.10;99.90;;;;;;5005471;28;20203;-68
2022/06/28 03:08:41;;;;;;;3.00;2.70;;;16.10;99.90;;;;;;4999380;28;20596;-67
2022/06/28 03:11:07;;;;;;;5.50;2.87;;;16.10;99.90;;;;;;4998892;28;20202;-67
2022/06/28 03:13:32;;;;;;;4.10;2.80;;;16.10;99.90;;;;;;5004114;28;20187;-68
2022/06/28 03:15:58;;;;;;;3.23;2.90;;;16.10;99.90;;;;;;4999530;28;20816;-67
2022/06/28 03:18:23;;;;;;;3.50;3.20;;;16.00;99.90;;;;;;4997679;28;20175;-67
2022/06/28 03:20:49;;;;;;;2.83;2.63;;;16.00;99.90;;;;;;5007549;28;20182;-68
2022/06/28 03:23:14;;;;;;;3.70;3.00;;;16.00;99.90;;;;;;4996631;28;20188;-66
2022/06/28 03:25:40;;;;;;;3.20;3.00;;;16.00;99.90;;;;;;4999270;28;20187;-67
2022/06/28 03:28:05;;;;;;;3.50;3.20;;;16.10;99.90;;;;;;4997053;28;20664;-71
2022/06/28 03:30:31;;;;;;;5.87;3.13;;;16.10;99.90;;;;;;4998411;28;20573;-66
2022/06/28 03:32:57;;;;;;;3.43;3.13;;;16.10;99.90;;;;;;5005424;28;20187;-67
2022/06/28 03:35:23;;;;;;;3.33;3.03;;;16.20;99.90;;;;;;4999260;28;20516;-68
2022/06/28 03:37:49;;;;;;;3.30;3.10;;;16.20;99.90;;;;;;4996563;28;20649;-68
2022/06/28 03:40:14;;;;;;;3.83;3.60;;;16.30;99.90;;;;;;4998329;28;20430;-66
2022/06/28 03:42:40;;;;;;;3.07;2.87;;;16.40;99.90;;;;;;4995241;28;20184;-67
2022/06/28 03:45:06;;;;;;;4.90;3.10;;;16.40;99.90;;;;;;4997521;28;20263;-68
2022/06/28 03:47:32;;;;;;;3.00;2.80;;;16.50;99.90;;;;;;4999422;28;20231;-68
2022/06/28 03:49:57;;;;;;;3.00;2.67;;;16.60;99.90;;;;;;5004938;28;20196;-70
2022/06/28 03:52:28;;;;;;;3.27;3.07;;;16.70;99.90;;;;;;4996410;28;20645;-66
2022/06/28 03:54:58;;;;;;;3.10;2.90;;;16.70;99.90;;;;;;5004755;28;20566;-70
2022/06/28 03:57:25;;;;;;;2.80;2.60;;;16.80;99.90;;;;;;4994289;28;20490;-67
2022/06/28 03:59:51;;;;;;;4.60;4.10;;;16.70;99.90;;;;;;4996173;28;20438;-70
2022/06/28 04:02:16;;;;;;;7.70;2.90;;;16.80;99.90;;;;;;4998398;28;20457;-67
2022/06/28 04:04:42;;;;;;;3.20;2.53;;;16.70;99.90;;;;;;4997981;28;20176;-67
2022/06/28 04:07:07;;;;;;;3.30;3.00;;;16.70;99.90;;;;;;4995764;28;20230;-69
2022/06/28 04:09:33;;;;;;;3.13;2.93;;;16.70;99.90;;;;;;5003073;28;20208;-70
2022/06/28 04:11:58;;;;;;;3.17;2.97;;;16.70;99.90;;;;;;4997412;28;20195;-67
2022/06/28 04:14:24;;;;;;;2.90;2.70;;;16.70;99.90;;;;;;5003366;28;20675;-67
2022/06/28 04:16:49;;;;;;;9.63;4.47;;;16.70;99.90;;;;;;5004840;28;20207;-74
2022/06/28 04:19:15;;;;;;;5.00;3.40;;;16.60;99.90;;;;;;5005669;28;20172;-67
2022/06/28 04:21:40;;;;;;;7.70;3.30;;;16.50;99.90;;;;;;5005758;28;20649;-68
2022/06/28 04:24:06;;;;;;;3.70;3.50;;;16.60;99.90;;;;;;5002753;28;20180;-67
2022/06/28 04:26:32;;;;;;;3.47;3.27;;;16.70;99.90;;;;;;4999216;28;20613;-69
2022/06/28 04:28:57;;;;;;;4.07;3.13;;;16.80;99.90;;;;;;4996803;28;20191;-67
2022/06/28 04:31:23;;;;;;;3.57;3.27;;;16.90;99.90;;;;;;4999274;28;20260;-71
2022/06/28 04:33:48;;;;;;;3.03;2.83;;;16.90;99.90;;;;;;5008763;28;20599;-67
2022/06/28 04:36:14;;;;;;;8.23;4.40;;;17.00;99.90;;;;;;5008081;28;20247;-67
2022/06/28 04:38:39;;;;;;;3.47;3.27;;;17.10;99.90;;;;;;5003518;28;20175;-70
2022/06/28 04:41:05;;;;;;;3.40;3.20;;;17.20;99.90;;;;;;5008679;28;20187;-66
2022/06/28 04:43:31;;;;;;;3.57;3.30;;;17.30;99.90;;;;;;5003780;28;20182;-69
2022/06/28 04:45:56;;;;;;;4.60;3.10;;;17.30;99.90;;;;;;5001875;28;20333;-69
2022/06/28 04:48:21;;;;;;;5.20;2.97;;;17.30;99.90;;;;;;5007095;28;20608;-67
2022/06/28 04:50:47;;;;;;;4.27;3.90;;;17.40;99.90;;;;;;5002271;28;20213;-67
2022/06/28 04:53:13;;;;;;;4.47;2.90;;;17.40;99.90;;;;;;5004699;28;20198;-68
2022/06/28 04:55:38;;;;;;;2.60;2.40;;;17.40;99.90;;;;;;4995658;28;20213;-66
2022/06/28 04:58:04;;;;;;;3.17;2.97;;;17.50;99.90;;;;;;4996744;28;20204;-67
2022/06/28 05:00:29;;;;;;;3.33;3.13;;;17.40;99.90;;;;;;4995425;28;20191;-70
2022/06/28 05:02:55;;;;;;;3.23;3.03;;;17.60;99.90;;;;;;4990975;28;20186;-66
2022/06/28 05:05:21;;;;;;;4.43;3.43;;;17.60;99.90;;;;;;5000223;28;20194;-66
2022/06/28 05:07:47;;;;;;;3.70;2.87;;;17.70;99.90;;;;;;4997348;28;20494;-67
2022/06/28 05:10:12;;;;;;;3.60;3.30;;;17.70;99.90;;;;;;5003151;28;20175;-69
2022/06/28 05:12:38;;;;;;;3.93;3.47;;;17.80;99.90;;;;;;4993725;28;20214;-66
2022/06/28 05:15:04;;;;;;;4.00;3.70;;;17.80;99.90;;;;;;4995490;28;20207;-67
2022/06/28 05:17:29;;;;;;;5.53;3.10;;;17.80;99.90;;;;;;4992298;28;20195;-69
2022/06/28 05:19:55;;;;;;;4.60;3.47;;;17.80;99.90;;;;;;4988945;28;20443;-66
2022/06/28 05:22:21;;;;;;;4.00;3.70;;;17.90;99.90;;;;;;4999436;28;20187;-67
2022/06/28 05:24:46;;;;;;;4.57;4.27;;;18.10;99.90;;;;;;4992458;28;20793;-67
2022/06/28 05:27:12;;;;;;;3.93;3.63;;;18.10;99.90;;;;;;4990267;28;20287;-67
2022/06/28 05:29:38;;;;;;;5.57;5.17;;;18.30;99.90;;;;;;4984332;28;20187;-67
2022/06/28 05:32:04;;;;;;;7.57;6.97;;;18.30;99.90;;;;;;4993230;28;20224;-66
2022/06/28 05:34:30;;;;;;;8.07;7.27;;;18.40;99.90;;;;;;4992124;28;20194;-66
2022/06/28 05:36:55;;;;;;;9.67;8.87;;;18.30;99.90;;;;;;4995570;28;20462;-65
2022/06/28 05:39:21;;;;;;;8.40;7.70;;;18.40;99.90;;;;;;5007848;28;20221;-67
2022/06/28 05:41:47;;;;;;;9.40;8.60;;;18.50;99.90;;;;;;4984098;28;20180;-66
2022/06/28 05:44:13;;;;;;;8.33;7.63;;;18.60;99.90;;;;;;4993049;28;20691;-70
2022/06/28 05:46:42;;;;;;;9.07;8.37;;;18.70;99.90;;;;;;4993801;28;20215;-71
2022/06/28 05:49:08;;;;;;;9.93;9.07;;;18.90;99.90;;;;;;5000241;28;20447;-71
2022/06/28 05:51:34;;;;;;;9.53;8.70;;;19.10;99.90;;;;;;4991656;28;20531;-71
2022/06/28 05:54:01;;;;;;;10.60;9.70;;;19.20;99.90;;;;;;4994531;28;21098;-71
2022/06/28 05:56:27;;;;;;;10.87;9.97;;;19.10;99.90;;;;;;4995339;28;20450;-71
2022/06/28 05:58:52;;;;;;;10.10;9.30;;;19.40;99.90;;;;;;4994922;28;20446;-71
2022/06/28 06:01:18;;;;;;;10.53;9.63;;;19.30;99.90;;;;;;4995593;28;20178;-71
2022/06/28 06:03:43;;;;;;;10.23;9.17;;;19.40;99.90;;;;;;4995580;28;20171;-71
2022/06/28 06:06:09;;;;;;;9.97;9.17;;;19.40;99.90;;;;;;4995490;28;20206;-71
2022/06/28 06:08:35;;;;;;;10.03;9.17;;;19.50;99.90;;;;;;4994711;28;20167;-71
2022/06/28 06:11:07;;;;;;;9.43;8.73;;;19.60;99.90;;;;;;4995500;28;20182;-71
2022/06/28 06:13:33;;;;;;;9.47;8.80;;;19.60;99.90;;;;;;4995415;28;20814;-71
2022/06/28 06:15:59;;;;;;;12.10;11.00;;;19.40;99.90;;;;;;4995332;28;20593;-71
2022/06/28 06:18:24;;;;;;;15.33;10.60;;;19.40;99.90;;;;;;4994504;28;20916;-71
2022/06/28 06:20:50;;;;;;;9.23;8.60;;;19.60;99.90;;;;;;4995209;28;20176;-70
2022/06/28 06:23:15;;;;;;;11.50;9.13;;;19.80;99.90;;;;;;4989406;28;20211;-71
2022/06/28 06:25:41;;;;;;;8.60;7.80;;;19.90;99.90;;;;;;4985477;28;20168;-71
2022/06/28 06:28:07;;;;;;;9.53;8.63;;;20.00;99.90;;;;;;4993369;28;20176;-71
2022/06/28 06:30:33;;;;;;;10.30;9.50;;;19.90;99.90;;;;;;4983572;28;20250;-71
2022/06/28 06:32:59;;;;;;;10.47;9.67;;;19.90;99.90;;;;;;4971017;28;20183;-71
2022/06/28 06:35:25;;;;;;;11.27;10.37;;;19.90;99.90;;;;;;4991146;28;20990;-71
2022/06/28 06:37:52;;;;;;;12.20;9.37;;;20.00;99.90;;;;;;4994412;28;20199;-71
2022/06/28 06:40:19;;;;;;;9.00;8.13;;;20.00;99.90;;;;;;4991303;28;20180;-70
2022/06/28 06:42:45;;;;;;;9.57;8.87;;;19.70;99.90;;;;;;4993736;28;20748;-71
2022/06/28 06:45:10;;;;;;;9.80;8.80;;;19.60;99.90;;;;;;4994813;28;20430;-71
2022/06/28 06:47:36;;;;;;;10.20;9.40;;;19.50;99.90;;;;;;4995300;28;20222;-64
2022/06/28 06:50:08;;;;;;;11.97;11.07;;;19.40;99.90;;;;;;4976302;28;20558;-65
2022/06/28 06:52:33;;;;;;;12.20;11.10;;;19.40;99.90;;;;;;4985987;28;20191;-70
2022/06/28 06:54:59;;;;;;;9.83;8.93;;;19.30;99.90;;;;;;4989292;28;20513;-70
2022/06/28 06:57:24;;;;;;;9.47;8.57;;;19.40;99.90;;;;;;4991373;28;20274;-70
2022/06/28 06:59:50;;;;;;;10.43;9.53;;;19.40;99.90;;;;;;5000835;28;20198;-70
2022/06/28 07:02:15;;;;;;;10.30;9.60;;;19.40;99.90;;;;;;5007472;28;20232;-69
2022/06/28 07:04:41;;;;;;;8.70;8.10;;;19.30;99.90;;;;;;4991485;28;20549;-69
2022/06/28 07:07:06;;;;;;;9.33;8.53;;;19.10;99.90;;;;;;4990940;28;20203;-70
2022/06/28 07:09:32;;;;;;;11.87;10.77;;;19.00;99.90;;;;;;4990122;28;20172;-69
2022/06/28 07:11:58;;;;;;;13.23;9.47;;;18.90;99.90;;;;;;4995458;28;20240;-69
2022/06/28 07:14:23;;;;;;;9.50;8.80;;;18.70;99.90;;;;;;4990981;28;20227;-69
2022/06/28 07:16:49;;;;;;;10.10;9.20;;;18.50;99.90;;;;;;4990797;28;20569;-69
2022/06/28 07:19:14;;;;;;;8.83;8.23;;;18.50;99.90;;;;;;4990365;28;20175;-69
2022/06/28 07:21:40;;;;;;;11.80;10.80;;;18.50;99.90;;;;;;4987508;28;20180;-69
2022/06/28 07:24:07;;;;;;;9.70;9.00;;;18.40;99.90;;;;;;4990704;28;20230;-69
2022/06/28 07:26:35;;;;;;;10.47;9.53;;;18.50;99.90;;;;;;4990830;28;20202;-70
2022/06/28 07:29:02;;;;;;;11.10;10.10;;;18.50;99.90;;;;;;4989839;28;20434;-69
2022/06/28 07:31:28;;;;;;;11.07;9.97;;;18.50;99.90;;;;;;4987230;28;20801;-70
2022/06/28 07:33:54;;;;;;;11.80;10.77;;;18.50;99.90;;;;;;4990844;28;20434;-70
2022/06/28 07:36:19;;;;;;;9.90;9.10;;;18.70;99.90;;;;;;4990485;28;21086;-70
2022/06/28 07:38:45;;;;;;;10.13;9.13;;;19.00;99.90;;;;;;4989638;28;20422;-70
2022/06/28 07:41:10;;;;;;;9.93;9.03;;;19.40;99.90;;;;;;4987380;28;20180;-71
2022/06/28 07:43:36;;;;;;;10.10;9.30;;;19.70;99.90;;;;;;4990470;28;20175;-71
2022/06/28 07:46:02;;;;;;;9.53;8.93;;;20.00;99.90;;;;;;4990151;28;20215;-70
2022/06/28 07:48:28;;;;;;;11.73;9.10;;;20.40;99.90;;;;;;4998956;28;20174;-70
2022/06/28 07:53:37;;;;;;;10.37;9.47;;;20.60;99.90;;;;;;5010032;28;20425;-70
2022/06/28 07:56:03;;;;;;;9.97;9.03;;;20.90;99.90;;;;;;5009635;28;20465;-70
2022/06/28 07:58:29;;;;;;;10.60;9.70;;;20.90;99.90;;;;;;4994467;28;20259;-70
2022/06/28 08:00:54;;;;;;;11.97;11.07;;;21.10;99.90;;;;;;4988414;28;20211;-70
2022/06/28 08:03:20;;;;;;;11.33;10.17;;;21.00;99.90;;;;;;4993315;28;20207;-70
2022/06/28 08:05:46;;;;;;;9.47;8.53;;;21.10;99.90;;;;;;4993012;28;20605;-70
2022/06/28 08:08:11;;;;;;;9.67;8.97;;;21.20;99.90;;;;;;4992841;28;20419;-70
2022/06/28 08:10:37;;;;;;;8.73;8.13;;;21.10;99.90;;;;;;4989506;28;20183;-70
2022/06/28 08:13:03;;;;;;;10.00;9.20;;;20.80;99.90;;;;;;5002206;28;20186;-70
2022/06/28 08:15:28;;;;;;;10.07;9.27;;;20.60;99.90;;;;;;4993185;28;20207;-70
2022/06/28 08:17:54;;;;;;;8.40;7.90;;;20.70;99.90;;;;;;4993005;28;20191;-70
2022/06/28 08:20:20;;;;;;;8.90;8.30;;;20.90;99.90;;;;;;4990880;28;20172;-70
2022/06/28 08:22:46;;;;;;;8.67;8.07;;;20.90;99.90;;;;;;4992686;28;20830;-70
2022/06/28 08:25:12;;;;;;;8.17;7.60;;;21.30;99.90;;;;;;4992930;28;20455;-70
2022/06/28 08:27:37;;;;;;;8.87;7.97;;;21.60;99.90;;;;;;4999188;28;20195;-70
2022/06/28 08:30:07;;;;;;;8.40;7.90;;;21.80;99.90;;;;;;4999612;28;20191;-73
2022/06/28 08:32:32;;;;;;;7.83;7.20;;;22.30;99.90;;;;;;4997584;28;20175;-70
2022/06/28 08:34:58;;;;;;;12.43;11.20;;;22.50;99.90;;;;;;5000450;28;20477;-70
2022/06/28 08:37:23;;;;;;;8.63;8.03;;;22.10;99.90;;;;;;5000834;28;20576;-70
2022/06/28 08:39:49;;;;;;;9.50;8.80;;;22.40;99.90;;;;;;4999648;28;20167;-70
2022/06/28 08:42:19;;;;;;;9.43;8.20;;;22.20;99.90;;;;;;4997618;28;20245;-70
2022/06/28 08:44:48;;;;;;;9.00;8.30;;;22.50;99.90;;;;;;4999552;28;20214;-70
2022/06/28 08:47:14;;;;;;;7.77;7.07;;;23.10;99.90;;;;;;4998947;28;20464;-70
2022/06/28 08:50:00;;;;;;;6.90;6.40;;;23.40;99.90;;;;;;4999648;28;20441;-70
2022/06/28 08:52:26;;;;;;;7.60;7.00;;;23.60;99.90;;;;;;4997512;28;20430;-70
2022/06/28 08:54:52;;;;;;;7.70;6.90;;;23.60;99.90;;;;;;5000326;28;20467;-70
2022/06/28 08:57:21;;;;;;;7.00;6.60;;;23.40;99.90;;;;;;4999952;28;20236;-70
2022/06/28 08:59:48;;;;;;;7.03;6.40;;;23.20;99.90;;;;;;4999106;28;20430;-71
2022/06/28 09:02:16;;;;;;;5.90;5.50;;;23.10;99.90;;;;;;4980780;28;21109;-71
2022/06/28 09:04:48;;;;;;;6.30;5.80;;;23.40;99.90;;;;;;4995270;28;20442;-71
2022/06/28 09:07:14;;;;;;;6.40;5.90;;;23.90;99.90;;;;;;4977514;28;20540;-71
2022/06/28 09:09:39;;;;;;;5.30;5.00;;;24.40;99.90;;;;;;5000827;28;20496;-71
2022/06/28 09:12:06;;;;;;;5.60;5.10;;;24.40;99.90;;;;;;5001806;28;20433;-70
2022/06/28 09:14:34;;;;;;;5.63;5.13;;;24.50;99.90;;;;;;4989178;28;20579;-71
2022/06/28 09:17:26;;;;;;;5.23;4.87;;;24.60;99.90;;;;;;4988899;28;20443;-70
2022/06/28 09:19:59;;;;;;;5.83;5.33;;;24.60;99.90;;;;;;4997054;28;20448;-71
2022/06/28 09:22:35;;;;;;;5.50;5.00;;;24.30;99.90;;;;;;5005288;28;20426;-70
2022/06/28 09:25:03;;;;;;;5.57;4.93;;;24.20;99.90;;;;;;4984793;28;20437;-70
2022/06/28 09:27:33;;;;;;;5.80;5.40;;;24.40;99.90;;;;;;4990512;28;20533;-68
2022/06/28 09:30:00;;;;;;;5.03;4.17;;;25.00;99.90;;;;;;4988121;28;20423;-68
2022/06/28 09:32:31;;;;;;;4.90;4.60;;;25.40;99.90;;;;;;4991757;28;20433;-69
2022/06/28 09:35:06;;;;;;;4.13;3.93;;;25.70;99.90;;;;;;4990528;28;20458;-68
2022/06/28 09:37:39;;;;;;;4.30;4.00;;;25.70;99.90;;;;;;4988749;28;20496;-69
2022/06/28 09:40:17;;;;;;;4.57;4.17;;;25.40;99.90;;;;;;4988167;28;20501;-69
2022/06/28 09:42:43;;;;;;;4.00;3.70;;;25.10;99.90;;;;;;4987383;28;20465;-69
2022/06/28 09:45:11;;;;;;;4.20;3.90;;;24.80;99.90;;;;;;4988700;28;21026;-69
2022/06/28 09:47:48;;;;;;;4.43;4.13;;;24.70;99.90;;;;;;4988821;28;20455;-69
2022/06/28 09:50:19;;;;;;;4.17;3.87;;;25.10;99.90;;;;;;4985694;28;20434;-69
2022/06/28 09:52:45;;;;;;;3.77;3.57;;;25.60;99.90;;;;;;5007360;28;20428;-69
2022/06/28 09:55:14;;;;;;;3.13;2.93;;;26.50;99.90;;;;;;4992925;28;20470;-69
2022/06/28 09:57:43;;;;;;;3.80;3.33;;;27.30;99.90;;;;;;5006469;28;20223;-69
2022/06/28 10:00:09;;;;;;;4.10;3.80;;;28.00;99.90;;;;;;4989336;28;20418;-67
2022/06/28 10:02:35;;;;;;;3.27;3.07;;;28.20;99.70;;;;;;4990548;28;20430;-67
2022/06/28 10:05:01;;;;;;;3.40;3.20;;;28.60;99.50;;;;;;5010470;28;20422;-67
2022/06/28 10:07:30;;;;;;;5.27;3.40;;;28.40;98.20;;;;;;5010750;28;20918;-67
2022/06/28 10:09:56;;;;;;;4.20;3.90;;;27.90;98.30;;;;;;4995121;28;20242;-66
2022/06/28 10:15:08;;;;;;;2.93;2.73;;;27.60;98.80;;;;;;4994406;28;20457;-65
2022/06/28 10:17:50;;;;;;;4.43;4.13;;;27.60;97.20;;;;;;4994697;28;20443;-65
2022/06/28 10:20:20;;;;;;;3.40;3.20;;;27.40;98.20;;;;;;5001246;28;20414;-68
2022/06/28 10:22:46;;;;;;;3.40;3.20;;;27.30;98.50;;;;;;4995514;28;20454;-63
2022/06/28 10:25:24;;;;;;;2.97;2.77;;;27.50;98.50;;;;;;4999619;28;20419;-64
2022/06/28 10:27:52;;;;;;;3.53;3.33;;;28.00;97.60;;;;;;4999419;28;20420;-64
2022/06/28 10:30:26;;;;;;;4.67;4.37;;;28.30;96.90;;;;;;4996001;28;20422;-67
2022/06/28 10:33:02;;;;;;;16.40;4.10;;;29.10;95.90;;;;;;4994162;28;20496;-64
2022/06/28 10:35:36;;;;;;;5.13;3.63;;;30.60;93.90;;;;;;4998672;28;20998;-66
2022/06/28 10:38:07;;;;;;;4.87;4.57;;;31.90;91.10;;;;;;4998330;28;20437;-66
2022/06/28 10:40:37;;;;;;;3.20;3.00;;;32.00;88.80;;;;;;4994149;28;20426;-63
2022/06/28 10:43:03;;;;;;;3.73;3.53;;;31.60;87.00;;;;;;4996324;28;20443;-64
2022/06/28 10:46:02;;;;;;;3.40;3.20;;;31.60;85.50;;;;;;4996980;28;20454;-64
2022/06/28 10:48:31;;;;;;;3.50;3.30;;;31.90;84.80;;;;;;4995624;28;20183;-65
2022/06/28 10:50:58;;;;;;;4.57;3.63;;;31.30;84.40;;;;;;4993448;28;20427;-65
2022/06/28 10:53:50;;;;;;;3.13;2.93;;;30.80;85.70;;;;;;4995170;28;20434;-63
2022/06/28 10:56:17;;;;;;;2.77;2.60;;;30.20;87.50;;;;;;4994948;28;20822;-63
2022/06/28 10:59:02;;;;;;;3.60;3.40;;;29.40;90.00;;;;;;4994849;28;20510;-65
2022/06/28 11:01:40;;;;;;;2.83;2.63;;;29.70;89.40;;;;;;4992041;28;20422;-65
2022/06/28 11:04:12;;;;;;;2.87;2.77;;;30.60;86.00;;;;;;4994629;28;20789;-68
2022/06/28 11:06:42;;;;;;;2.73;2.63;;;31.10;83.40;;;;;;4994579;28;20431;-66
2022/06/28 11:09:28;;;;;;;2.87;2.67;;;31.30;82.20;;;;;;4993668;28;20430;-66
2022/06/28 11:12:17;;;;;;;2.93;2.70;;;31.90;81.90;;;;;;4992188;28;20411;-65
2022/06/28 11:14:52;;;;;;;2.63;2.53;;;31.90;77.00;;;;;;4994348;28;20481;-68
2022/06/28 11:17:20;;;;;;;3.07;2.87;;;31.30;78.20;;;;;;4994194;28;20442;-66
2022/06/28 11:19:51;;;;;;;3.07;2.93;;;31.40;79.90;;;;;;4993646;28;20480;-66
2022/06/28 11:22:23;;;;;;;3.03;2.93;;;30.70;81.70;;;;;;4992054;28;20782;-66
2022/06/28 11:24:49;;;;;;;3.00;2.80;;;30.10;83.10;;;;;;4994786;28;20427;-65
2022/06/28 11:27:21;;;;;;;3.37;3.10;;;29.90;85.10;;;;;;4994850;28;20472;-66
2022/06/28 11:30:02;;;;;;;2.93;2.73;;;30.00;84.50;;;;;;5013059;28;20804;-66
2022/06/28 11:32:35;;;;;;;2.93;2.67;;;30.10;85.40;;;;;;4994160;28;20426;-66
2022/06/28 11:35:09;;;;;;;2.80;2.70;;;29.70;85.60;;;;;;4993519;28;20520;-65
2022/06/28 11:37:51;;;;;;;3.27;3.10;;;29.10;85.60;;;;;;4994009;28;20446;-68
2022/06/28 11:40:19;;;;;;;2.90;2.70;;;28.90;86.60;;;;;;4992995;28;20764;-65
2022/06/28 11:42:46;;;;;;;3.73;3.07;;;28.90;86.70;;;;;;4993738;28;20419;-65
2022/06/28 11:45:13;;;;;;;2.80;2.70;;;28.90;87.00;;;;;;4993488;28;20514;-66
2022/06/28 11:47:45;;;;;;;2.80;2.70;;;29.10;87.10;;;;;;4993447;28;20471;-65
2022/06/28 11:50:18;;;;;;;2.70;2.50;;;29.40;86.40;;;;;;4993089;28;20422;-66
2022/06/28 11:52:47;;;;;;;2.70;2.30;;;29.90;84.00;;;;;;4993792;28;20414;-68
2022/06/28 11:55:13;;;;;;;3.07;2.87;;;29.60;83.50;;;;;;4994171;28;20564;-65
2022/06/28 11:57:39;;;;;;;4.03;2.10;;;29.60;84.70;;;;;;4993768;28;20447;-65
2022/06/28 12:00:06;;;;;;;2.73;2.60;;;29.40;85.00;;;;;;4993095;28;20423;-65
2022/06/28 12:02:43;;;;;;;4.20;3.90;;;29.20;87.10;;;;;;4994047;28;20422;-65
2022/06/28 12:05:09;;;;;;;3.10;2.90;;;30.10;86.10;;;;;;5000698;28;20477;-65
2022/06/28 12:07:40;;;;;;;3.33;3.00;;;31.20;82.10;;;;;;5006749;28;20446;-66
2022/06/28 12:10:23;;;;;;;2.53;2.43;;;31.90;79.70;;;;;;5011875;28;20422;-65
2022/06/28 12:12:49;;;;;;;2.37;2.27;;;32.40;78.00;;;;;;5005003;28;20434;-66
2022/06/28 12:15:14;;;;;;;2.43;2.33;;;31.40;78.30;;;;;;4993545;28;20463;-68
2022/06/28 12:17:47;;;;;;;2.90;2.70;;;30.40;79.50;;;;;;4993116;28;20219;-65
2022/06/28 12:20:17;;;;;;;2.30;2.10;;;29.20;81.90;;;;;;4992277;28;20255;-65
2022/06/28 12:22:42;;;;;;;3.70;2.13;;;28.30;85.50;;;;;;4993259;28;20442;-65
2022/06/28 12:25:11;;;;;;;2.43;2.33;;;27.50;87.10;;;;;;4993098;28;20896;-66
2022/06/28 12:27:36;;;;;;;2.87;2.67;;;27.10;87.90;;;;;;4993197;28;20278;-66
2022/06/28 12:30:04;;;;;;;2.43;2.27;;;27.10;88.70;;;;;;4992342;28;20419;-65
2022/06/28 12:32:30;;;;;;;2.50;2.30;;;27.30;88.80;;;;;;4973504;28;20279;-65
2022/06/28 12:35:01;;;;;;;4.20;2.77;;;27.30;89.50;;;;;;4973575;28;20550;-65
2022/06/28 12:37:27;;;;;;;2.80;2.70;;;27.00;90.30;;;;;;4974806;28;20215;-66
2022/06/28 12:39:53;;;;;;;3.20;2.90;;;26.30;91.10;;;;;;4989202;28;20441;-66
2022/06/28 12:42:19;;;;;;;2.33;2.20;;;25.70;92.50;;;;;;4979659;28;20199;-67
2022/06/28 12:44:45;;;;;;;2.30;2.20;;;25.50;93.20;;;;;;4983961;28;20453;-66
2022/06/28 12:47:11;;;;;;;2.17;2.00;;;25.60;92.90;;;;;;4977473;28;21188;-65
2022/06/28 12:49:37;;;;;;;4.60;2.17;;;26.10;92.40;;;;;;4981342;28;20231;-65
2022/06/28 12:52:03;;;;;;;2.30;2.20;;;26.40;92.20;;;;;;4977667;28;20180;-66
2022/06/28 12:54:28;;;;;;;2.40;2.20;;;26.90;92.50;;;;;;4972015;28;20462;-66
2022/06/28 12:56:54;;;;;;;2.37;2.23;;;27.30;91.40;;;;;;4977969;28;20526;-67
2022/06/28 12:59:20;;;;;;;4.50;2.60;;;26.80;91.70;;;;;;4992162;28;20175;-67